Time;durP1;ratioP1;P1;durP2;ratioP2;P2;SDS_P1;SDS_P2;PMS_P1;PMS_P2;Temp;Humidity;BMP_temperature;BMP_pressure;BME280_temperature;BME280_humidity;BME280_pressure;Samples;Min_cycle;Max_cycle;Signal;HPM_P1;HPM_P2
2023/01/05 00:00:54;;;;;;;13.67;4.93;;;;;;;;;;5080976;28;20796;-75
2023/01/05 00:03:21;;;;;;;9.13;3.50;;;;;;;;;;5092411;28;20802;-75
2023/01/05 00:05:47;;;;;;;11.13;3.97;;;;;;;;;;5082932;28;20889;-74
2023/01/05 00:08:13;;;;;;;9.20;4.13;;;;;;;;;;5087503;28;20802;-74
2023/01/05 00:24:25;;;;;;;16.60;4.20;;;;;;;;;;5084999;28;20457;-75
2023/01/05 00:26:52;;;;;;;17.77;4.90;;;;;;;;;;5097967;28;20430;-73
2023/01/05 00:29:18;;;;;;;10.00;4.33;;;;;;;;;;5076228;28;20431;-75
2023/01/05 00:31:44;;;;;;;10.53;4.17;;;;;;;;;;5077854;28;21002;-76
2023/01/05 00:34:10;;;;;;;18.13;5.40;;;;;;;;;;5078625;28;20481;-74
2023/01/05 00:36:36;;;;;;;16.63;6.00;;;;;;;;;;5100243;28;20823;-75
2023/01/05 00:39:02;;;;;;;21.00;4.03;;;;;;;;;;5084544;28;20493;-76
2023/01/05 00:41:28;;;;;;;11.53;4.77;;;;;;;;;;5102586;28;20439;-75
2023/01/05 00:43:54;;;;;;;13.20;4.17;;;;;;;;;;5089734;28;20443;-75
2023/01/05 00:46:20;;;;;;;13.80;4.07;;;;;;;;;;5083775;28;20439;-75
2023/01/05 00:48:46;;;;;;;11.93;4.40;;;;;;;;;;5098176;28;20450;-74
2023/01/05 00:51:12;;;;;;;15.97;4.63;;;;;;;;;;5090871;28;20969;-75
2023/01/05 00:53:38;;;;;;;15.33;4.43;;;;;;;;;;5087143;28;20527;-75
2023/01/05 00:56:04;;;;;;;16.83;4.40;;;;;;;;;;5083599;28;20435;-76
2023/01/05 00:58:30;;;;;;;12.50;4.23;;;;;;;;;;5086764;28;20440;-75
2023/01/05 01:00:56;;;;;;;13.13;4.57;;;;;;;;;;5099814;28;20435;-75
2023/01/05 01:03:22;;;;;;;12.73;5.10;;;;;;;;;;5078962;28;20555;-74
2023/01/05 01:05:58;;;;;;;7.43;3.50;;;;;;;;;;5104170;28;20519;-76
2023/01/05 01:08:24;;;;;;;15.23;5.10;;;;;;;;;;5086551;28;20478;-75
2023/01/05 01:10:50;;;;;;;16.40;4.90;;;;;;;;;;5081331;28;20546;-75
2023/01/05 01:13:16;;;;;;;16.03;5.47;;;;;;;;;;5088650;28;21039;-75
2023/01/05 01:15:42;;;;;;;15.27;5.57;;;;;;;;;;5094516;28;20431;-75
2023/01/05 01:18:08;;;;;;;14.80;4.30;;;;;;;;;;5078980;28;20449;-76
2023/01/05 01:20:34;;;;;;;11.17;4.27;;;;;;;;;;5084604;28;20842;-75
2023/01/05 01:23:02;;;;;;;16.03;4.00;;;;;;;;;;5086465;28;20531;-75
2023/01/05 01:25:28;;;;;;;7.93;3.33;;;;;;;;;;5096704;28;20416;-75
2023/01/05 01:27:54;;;;;;;15.53;5.20;;;;;;;;;;5090577;28;20446;-75
2023/01/05 01:30:20;;;;;;;10.57;4.70;;;;;;;;;;5101827;28;21120;-74
2023/01/05 01:32:46;;;;;;;8.07;3.03;;;;;;;;;;5095630;28;20435;-76
2023/01/05 01:35:12;;;;;;;19.30;5.40;;;;;;;;;;5090436;28;20462;-76
2023/01/05 01:37:39;;;;;;;9.23;3.40;;;;;;;;;;5072512;28;20822;-75
2023/01/05 01:40:08;;;;;;;14.03;3.57;;;;;;;;;;5087425;28;20819;-75
2023/01/05 01:42:34;;;;;;;13.30;4.80;;;;;;;;;;5098489;28;20925;-74
2023/01/05 01:45:02;;;;;;;19.53;4.40;;;;;;;;;;5085824;28;20428;-74
2023/01/05 01:47:39;;;;;;;5.83;3.77;;;;;;;;;;5075856;28;20440;-75
2023/01/05 01:50:19;;;;;;;12.50;5.10;;;;;;;;;;5094227;28;20718;-76
2023/01/05 01:52:46;;;;;;;8.77;3.90;;;;;;;;;;5092777;28;20432;-75
2023/01/05 01:55:13;;;;;;;12.67;3.43;;;;;;;;;;5074977;28;20423;-76
2023/01/05 01:57:39;;;;;;;17.87;4.40;;;;;;;;;;5098607;28;20431;-74
2023/01/05 02:00:07;;;;;;;15.50;5.03;;;;;;;;;;5093589;28;20515;-74
2023/01/05 02:02:33;;;;;;;13.83;4.40;;;;;;;;;;5092366;28;20481;-74
2023/01/05 02:05:00;;;;;;;12.17;4.80;;;;;;;;;;5090279;28;20416;-74
2023/01/05 02:07:29;;;;;;;18.47;5.27;;;;;;;;;;5081316;28;20481;-75
2023/01/05 02:09:55;;;;;;;8.97;3.60;;;;;;;;;;5088617;28;20505;-74
2023/01/05 02:12:21;;;;;;;13.43;2.50;;;;;;;;;;5097928;28;20471;-73
2023/01/05 02:15:02;;;;;;;8.47;3.00;;;;;;;;;;5077356;28;20487;-73
2023/01/05 02:17:40;;;;;;;16.60;4.87;;;;;;;;;;5082987;28;20462;-75
2023/01/05 02:20:15;;;;;;;13.33;4.47;;;;;;;;;;5086312;28;20413;-75
2023/01/05 02:22:41;;;;;;;19.90;4.77;;;;;;;;;;5087379;28;20876;-75
2023/01/05 02:25:26;;;;;;;14.83;4.37;;;;;;;;;;5091157;28;20427;-74
2023/01/05 02:28:04;;;;;;;19.27;6.30;;;;;;;;;;5076161;28;20954;-76
2023/01/05 02:30:33;;;;;;;12.60;4.90;;;;;;;;;;5097729;28;20469;-76
2023/01/05 02:33:18;;;;;;;14.53;5.10;;;;;;;;;;5082991;28;20436;-75
2023/01/05 02:35:51;;;;;;;15.90;4.63;;;;;;;;;;5097918;28;20784;-76
2023/01/05 02:38:29;;;;;;;14.70;4.73;;;;;;;;;;5098033;28;20438;-75
2023/01/05 02:40:59;;;;;;;11.43;5.43;;;;;;;;;;5077436;28;20415;-76
2023/01/05 02:43:27;;;;;;;15.57;4.70;;;;;;;;;;5090292;28;20978;-76
2023/01/05 02:45:54;;;;;;;23.50;5.93;;;;;;;;;;5096175;28;20426;-75
2023/01/05 02:48:20;;;;;;;20.83;5.60;;;;;;;;;;5081600;28;20446;-75
2023/01/05 02:51:01;;;;;;;15.67;6.67;;;;;;;;;;5081806;28;20465;-75
2023/01/05 02:53:35;;;;;;;14.30;5.40;;;;;;;;;;5101193;27;20443;-76
2023/01/05 02:56:07;;;;;;;12.70;5.17;;;;;;;;;;5075930;28;20393;-76
2023/01/05 02:58:43;;;;;;;10.30;4.47;;;;;;;;;;5080153;28;20930;-75
2023/01/05 03:01:13;;;;;;;8.30;4.97;;;;;;;;;;5097680;28;20416;-76
2023/01/05 03:03:45;;;;;;;15.70;6.67;;;;;;;;;;5096993;28;20443;-76
2023/01/05 03:06:15;;;;;;;14.20;5.00;;;;;;;;;;5095190;28;20977;-76
2023/01/05 03:08:48;;;;;;;17.03;5.50;;;;;;;;;;5093577;28;20976;-75
2023/01/05 03:14:07;;;;;;;16.67;5.77;;;;;;;;;;5089196;28;20438;-76
2023/01/05 03:16:35;;;;;;;24.03;6.77;;;;;;;;;;5078281;28;20427;-75
2023/01/05 03:35:41;;;;;;;16.00;5.40;;;;;;;;;;5074411;28;20419;-75
2023/01/05 03:38:10;;;;;;;12.70;6.27;;;;;;;;;;5084258;28;20450;-75
2023/01/05 03:40:38;;;;;;;18.20;5.67;;;;;;;;;;5085794;28;20861;-76
2023/01/05 03:43:04;;;;;;;13.20;5.83;;;;;;;;;;5091843;28;20514;-75
2023/01/05 03:45:53;;;;;;;9.33;4.57;;;;;;;;;;5070672;28;20447;-75
2023/01/05 03:48:20;;;;;;;8.87;3.90;;;;;;;;;;5077406;28;20450;-75
2023/01/05 03:50:46;;;;;;;19.77;5.70;;;;;;;;;;5096283;28;20822;-75
2023/01/05 03:53:12;;;;;;;18.90;5.07;;;;;;;;;;5100229;28;20480;-75
2023/01/05 03:55:39;;;;;;;20.63;5.73;;;;;;;;;;5083708;28;20519;-74
2023/01/05 03:58:05;;;;;;;16.77;6.03;;;;;;;;;;5085613;28;20436;-74
2023/01/05 04:00:31;;;;;;;11.87;5.30;;;;;;;;;;5098302;28;20428;-75
2023/01/05 04:02:58;;;;;;;15.20;6.27;;;;;;;;;;5099510;28;20438;-75
2023/01/05 04:05:24;;;;;;;19.03;5.73;;;;;;;;;;5085886;28;20481;-75
2023/01/05 04:07:50;;;;;;;12.70;5.53;;;;;;;;;;5077287;28;20544;-75
2023/01/05 04:10:16;;;;;;;23.17;6.80;;;;;;;;;;5070227;28;20462;-74
2023/01/05 04:12:43;;;;;;;15.10;5.20;;;;;;;;;;5085196;28;20431;-75
2023/01/05 04:15:09;;;;;;;14.47;6.50;;;;;;;;;;5073826;28;20773;-74
2023/01/05 04:17:35;;;;;;;16.70;6.17;;;;;;;;;;5074252;28;21008;-75
2023/01/05 04:20:01;;;;;;;21.27;5.30;;;;;;;;;;5085622;28;20448;-76
2023/01/05 04:22:27;;;;;;;18.63;5.20;;;;;;;;;;5089598;28;21424;-75
2023/01/05 04:24:53;;;;;;;12.97;5.73;;;;;;;;;;5093189;28;20430;-74
2023/01/05 04:27:19;;;;;;;14.50;6.30;;;;;;;;;;5069032;28;20432;-75
2023/01/05 04:29:45;;;;;;;14.93;5.10;;;;;;;;;;5075264;28;20405;-75
2023/01/05 04:32:11;;;;;;;18.50;5.67;;;;;;;;;;5082477;28;20463;-75
2023/01/05 04:34:37;;;;;;;12.67;4.90;;;;;;;;;;5085019;28;20509;-75
2023/01/05 04:37:03;;;;;;;16.00;5.27;;;;;;;;;;5090851;28;20420;-75
2023/01/05 04:39:29;;;;;;;20.97;6.60;;;;;;;;;;5091094;28;20419;-75
2023/01/05 04:41:55;;;;;;;20.23;6.80;;;;;;;;;;5090100;28;20453;-75
2023/01/05 04:44:21;;;;;;;21.80;5.77;;;;;;;;;;5098135;28;20412;-75
2023/01/05 04:46:47;;;;;;;22.80;8.03;;;;;;;;;;5086762;28;21215;-76
2023/01/05 04:49:13;;;;;;;19.00;6.63;;;;;;;;;;5068290;28;20492;-74
2023/01/05 04:51:39;;;;;;;20.73;6.77;;;;;;;;;;5088635;28;20464;-74
2023/01/05 04:54:05;;;;;;;14.80;6.00;;;;;;;;;;5088794;28;20707;-74
2023/01/05 04:56:31;;;;;;;20.17;8.30;;;;;;;;;;5077941;28;20819;-75
2023/01/05 04:58:57;;;;;;;15.67;5.77;;;;;;;;;;5080407;28;20516;-75
2023/01/05 05:01:23;;;;;;;21.00;6.23;;;;;;;;;;5095543;28;20478;-74
2023/01/05 05:03:49;;;;;;;20.27;5.47;;;;;;;;;;5071586;28;20865;-74
2023/01/05 05:06:16;;;;;;;22.77;5.20;;;;;;;;;;5098285;28;20424;-75
2023/01/05 05:08:42;;;;;;;18.17;5.43;;;;;;;;;;5082150;28;20996;-75
2023/01/05 05:11:08;;;;;;;18.23;5.43;;;;;;;;;;5091508;28;20460;-76
2023/01/05 05:13:34;;;;;;;21.77;6.33;;;;;;;;;;5072269;28;20440;-75
2023/01/05 05:16:00;;;;;;;17.47;5.10;;;;;;;;;;5096396;28;20518;-76
2023/01/05 05:18:26;;;;;;;29.33;5.90;;;;;;;;;;5079889;28;20433;-74
2023/01/05 05:20:52;;;;;;;20.97;5.30;;;;;;;;;;5098179;28;20698;-75
2023/01/05 05:23:18;;;;;;;18.37;4.77;;;;;;;;;;5085660;28;21047;-74
2023/01/05 05:25:44;;;;;;;21.67;5.27;;;;;;;;;;5090102;28;20516;-76
2023/01/05 05:28:10;;;;;;;24.43;5.17;;;;;;;;;;5080935;28;20435;-74
2023/01/05 05:30:37;;;;;;;15.60;5.93;;;;;;;;;;5086276;28;21038;-76
2023/01/05 05:33:03;;;;;;;24.13;6.50;;;;;;;;;;5080794;28;20438;-76
2023/01/05 05:35:29;;;;;;;25.47;6.73;;;;;;;;;;5085185;28;20443;-76
2023/01/05 05:37:55;;;;;;;10.77;5.00;;;;;;;;;;5085551;28;20447;-75
2023/01/05 05:40:21;;;;;;;11.37;4.90;;;;;;;;;;5085002;28;20530;-74
2023/01/05 05:42:47;;;;;;;13.07;4.90;;;;;;;;;;5075655;28;20859;-76
2023/01/05 05:45:13;;;;;;;12.60;5.00;;;;;;;;;;5078772;28;20439;-75
2023/01/05 05:47:39;;;;;;;18.53;5.53;;;;;;;;;;5077666;28;20456;-74
2023/01/05 05:50:05;;;;;;;22.90;6.40;;;;;;;;;;5087951;28;20487;-75
2023/01/05 05:52:31;;;;;;;19.07;4.87;;;;;;;;;;5089941;28;20811;-76
2023/01/05 05:54:57;;;;;;;11.10;4.77;;;;;;;;;;5079696;28;20457;-75
2023/01/05 05:57:23;;;;;;;27.90;5.37;;;;;;;;;;5075986;28;20451;-75
2023/01/05 05:59:49;;;;;;;24.40;5.13;;;;;;;;;;5087865;28;20480;-76
2023/01/05 06:02:15;;;;;;;24.53;6.10;;;;;;;;;;5088220;28;20447;-74
2023/01/05 06:04:41;;;;;;;22.57;5.63;;;;;;;;;;5088860;28;20494;-75
2023/01/05 06:07:07;;;;;;;13.13;3.73;;;;;;;;;;5093501;28;20655;-75
2023/01/05 06:09:34;;;;;;;18.43;5.90;;;;;;;;;;5091848;28;20448;-76
2023/01/05 06:12:00;;;;;;;19.30;5.37;;;;;;;;;;5089996;28;20512;-75
2023/01/05 06:14:26;;;;;;;16.70;4.77;;;;;;;;;;5088714;28;20429;-75
2023/01/05 06:16:52;;;;;;;26.00;6.00;;;;;;;;;;5102553;27;20499;-75
2023/01/05 06:19:18;;;;;;;12.27;4.90;;;;;;;;;;5096754;27;20557;-75
2023/01/05 06:21:44;;;;;;;13.87;5.57;;;;;;;;;;5080529;28;20511;-75
2023/01/05 06:24:10;;;;;;;14.17;6.13;;;;;;;;;;5080153;28;20766;-75
2023/01/05 06:26:36;;;;;;;18.93;6.23;;;;;;;;;;5079397;28;20450;-75
2023/01/05 06:29:02;;;;;;;17.67;5.47;;;;;;;;;;5089711;28;20433;-75
2023/01/05 06:31:28;;;;;;;24.10;6.70;;;;;;;;;;5088029;28;20467;-76
2023/01/05 06:33:54;;;;;;;18.00;6.57;;;;;;;;;;5079831;28;20412;-76
2023/01/05 06:36:20;;;;;;;19.93;5.57;;;;;;;;;;5086186;28;21246;-74
2023/01/05 06:38:46;;;;;;;15.53;5.30;;;;;;;;;;5084057;28;20814;-76
2023/01/05 06:41:12;;;;;;;27.97;7.03;;;;;;;;;;5087184;28;20827;-75
2023/01/05 06:43:38;;;;;;;31.80;8.80;;;;;;;;;;5087451;28;21063;-76
2023/01/05 06:46:04;;;;;;;19.97;5.10;;;;;;;;;;5089132;28;20546;-76
2023/01/05 06:48:30;;;;;;;21.93;6.37;;;;;;;;;;5077079;28;20451;-76
2023/01/05 06:50:56;;;;;;;16.07;5.47;;;;;;;;;;5080776;28;21183;-76
2023/01/05 06:53:22;;;;;;;36.83;7.93;;;;;;;;;;5073977;28;20436;-78
2023/01/05 06:55:48;;;;;;;21.87;7.00;;;;;;;;;;5083316;28;20432;-77
2023/01/05 06:58:14;;;;;;;20.63;7.07;;;;;;;;;;5081356;28;20444;-77
2023/01/05 07:00:40;;;;;;;25.37;6.57;;;;;;;;;;5080793;28;20446;-78
2023/01/05 07:03:06;;;;;;;30.70;7.57;;;;;;;;;;5105301;27;20459;-77
2023/01/05 07:05:32;;;;;;;16.10;5.40;;;;;;;;;;5082040;28;20531;-77
2023/01/05 07:07:58;;;;;;;19.07;6.37;;;;;;;;;;5088899;28;20859;-76
2023/01/05 07:10:24;;;;;;;16.50;5.63;;;;;;;;;;5077828;28;20464;-76
2023/01/05 07:12:50;;;;;;;23.30;6.60;;;;;;;;;;5080768;28;20456;-77
2023/01/05 07:15:16;;;;;;;22.80;7.43;;;;;;;;;;5083621;28;20429;-76
2023/01/05 07:17:42;;;;;;;21.77;6.77;;;;;;;;;;5080352;28;20467;-77
2023/01/05 07:20:08;;;;;;;24.27;6.90;;;;;;;;;;5079919;28;20425;-77
2023/01/05 07:22:34;;;;;;;21.00;7.77;;;;;;;;;;5092703;28;20515;-76
2023/01/05 07:25:00;;;;;;;35.40;7.17;;;;;;;;;;5081896;28;20524;-77
2023/01/05 07:27:26;;;;;;;33.53;8.20;;;;;;;;;;5084317;28;20505;-77
2023/01/05 07:29:52;;;;;;;29.07;10.50;;;;;;;;;;5075321;28;20904;-78
2023/01/05 07:32:18;;;;;;;36.63;9.40;;;;;;;;;;5084706;28;20869;-76
2023/01/05 07:34:44;;;;;;;24.87;6.43;;;;;;;;;;5081862;28;20428;-77
2023/01/05 07:37:11;;;;;;;17.83;6.77;;;;;;;;;;5077242;28;20436;-75
2023/01/05 07:39:36;;;;;;;19.23;6.67;;;;;;;;;;5097582;28;20426;-76
2023/01/05 07:42:03;;;;;;;27.50;7.17;;;;;;;;;;5080974;28;20428;-77
2023/01/05 07:44:29;;;;;;;23.10;6.37;;;;;;;;;;5079783;28;20511;-76
2023/01/05 07:46:57;;;;;;;25.50;6.60;;;;;;;;;;5084102;28;20526;-77
2023/01/05 07:49:23;;;;;;;29.87;7.03;;;;;;;;;;5079735;28;20432;-77
2023/01/05 07:51:49;;;;;;;17.97;7.37;;;;;;;;;;5071672;28;20529;-76
2023/01/05 07:54:15;;;;;;;21.07;7.97;;;;;;;;;;5081263;28;20833;-77
2023/01/05 07:56:41;;;;;;;31.67;6.73;;;;;;;;;;5084661;28;20424;-78
2023/01/05 07:59:07;;;;;;;33.80;7.33;;;;;;;;;;5087230;28;20432;-76
2023/01/05 08:01:33;;;;;;;24.57;7.83;;;;;;;;;;5075034;28;20435;-77
2023/01/05 08:03:59;;;;;;;26.07;6.87;;;;;;;;;;5087848;28;20475;-77
2023/01/05 08:06:25;;;;;;;22.07;6.90;;;;;;;;;;5081148;28;20491;-78
2023/01/05 08:08:51;;;;;;;30.17;7.10;;;;;;;;;;5082315;28;20743;-78
2023/01/05 08:11:20;;;;;;;19.27;6.40;;;;;;;;;;5085467;28;20456;-77
2023/01/05 08:13:58;;;;;;;24.67;7.07;;;;;;;;;;5080210;28;20422;-76
2023/01/05 08:16:25;;;;;;;22.17;7.70;;;;;;;;;;5068993;28;20658;-77
2023/01/05 08:18:51;;;;;;;22.37;7.03;;;;;;;;;;5079990;28;20415;-75
2023/01/05 08:21:17;;;;;;;20.10;6.37;;;;;;;;;;5078390;28;20428;-75
2023/01/05 08:23:44;;;;;;;37.47;8.30;;;;;;;;;;5074215;28;20408;-75
2023/01/05 08:26:14;;;;;;;43.07;8.80;;;;;;;;;;5084837;28;20489;-75
2023/01/05 08:28:41;;;;;;;19.90;7.93;;;;;;;;;;5094641;28;20964;-75
2023/01/05 08:31:08;;;;;;;23.50;7.13;;;;;;;;;;5082034;28;20575;-75
2023/01/05 08:33:34;;;;;;;16.63;7.20;;;;;;;;;;5076130;28;20448;-75
2023/01/05 08:36:00;;;;;;;33.23;8.27;;;;;;;;;;5089247;28;20510;-74
2023/01/05 08:38:26;;;;;;;17.00;7.47;;;;;;;;;;5088545;28;20507;-75
2023/01/05 08:40:53;;;;;;;35.67;8.87;;;;;;;;;;5087060;28;20480;-75
2023/01/05 08:43:19;;;;;;;19.47;8.23;;;;;;;;;;5085174;28;20506;-75
2023/01/05 08:45:49;;;;;;;26.63;8.97;;;;;;;;;;5082839;28;20408;-75
2023/01/05 08:48:15;;;;;;;29.07;8.13;;;;;;;;;;5084498;28;20461;-73
2023/01/05 08:50:41;;;;;;;23.33;6.37;;;;;;;;;;5091623;28;21129;-75
2023/01/05 08:53:07;;;;;;;19.53;6.43;;;;;;;;;;5080457;28;20743;-75
2023/01/05 08:55:33;;;;;;;30.00;8.13;;;;;;;;;;5082898;28;20433;-74
2023/01/05 08:57:59;;;;;;;30.97;8.07;;;;;;;;;;5072752;28;20771;-75
2023/01/05 09:00:25;;;;;;;20.00;6.07;;;;;;;;;;5083430;28;20887;-73
2023/01/05 09:02:51;;;;;;;31.90;8.33;;;;;;;;;;5081982;28;20463;-75
2023/01/05 09:05:17;;;;;;;29.47;8.23;;;;;;;;;;5079649;28;20501;-74
2023/01/05 09:07:43;;;;;;;19.00;7.17;;;;;;;;;;5072364;28;20557;-75
2023/01/05 09:10:10;;;;;;;25.03;7.30;;;;;;;;;;5070849;28;20479;-75
2023/01/05 09:12:36;;;;;;;26.93;7.43;;;;;;;;;;5084546;28;20459;-74
2023/01/05 09:15:03;;;;;;;19.00;7.17;;;;;;;;;;5085088;28;20768;-76
2023/01/05 09:17:29;;;;;;;20.10;7.43;;;;;;;;;;5080848;28;20428;-75
2023/01/05 09:19:55;;;;;;;21.03;6.60;;;;;;;;;;5087548;28;20439;-76
2023/01/05 09:22:21;;;;;;;21.50;6.90;;;;;;;;;;5074815;28;20531;-76
2023/01/05 09:24:47;;;;;;;28.83;7.77;;;;;;;;;;5071774;28;20445;-75
2023/01/05 09:27:14;;;;;;;27.77;6.80;;;;;;;;;;5080383;28;20740;-75
2023/01/05 09:29:40;;;;;;;18.47;6.03;;;;;;;;;;5074450;28;20449;-75
2023/01/05 09:32:07;;;;;;;29.57;7.40;;;;;;;;;;5073371;28;20513;-74
2023/01/05 09:34:33;;;;;;;25.20;9.80;;;;;;;;;;5092326;28;20451;-74
2023/01/05 09:36:59;;;;;;;25.10;8.07;;;;;;;;;;5079160;28;20563;-75
2023/01/05 09:39:25;;;;;;;17.30;6.50;;;;;;;;;;5077274;28;20865;-75
2023/01/05 09:41:53;;;;;;;28.23;6.10;;;;;;;;;;5073877;28;20430;-76
2023/01/05 09:44:35;;;;;;;23.03;8.50;;;;;;;;;;5107567;28;20441;-76
2023/01/05 09:47:11;;;;;;;24.10;7.00;;;;;;;;;;5086580;28;20686;-76
2023/01/05 09:49:38;;;;;;;21.93;7.43;;;;;;;;;;5101136;27;20443;-76
2023/01/05 09:52:08;;;;;;;24.60;7.53;;;;;;;;;;5092444;28;20467;-75
2023/01/05 09:54:34;;;;;;;17.30;6.33;;;;;;;;;;5081120;28;20427;-75
2023/01/05 09:57:00;;;;;;;22.10;6.60;;;;;;;;;;5094449;28;20473;-75
2023/01/05 09:59:32;;;;;;;20.13;6.00;;;;;;;;;;5091503;28;20448;-74
2023/01/05 10:02:00;;;;;;;23.33;6.73;;;;;;;;;;5081938;28;21031;-74
2023/01/05 10:04:27;;;;;;;24.83;7.57;;;;;;;;;;5086421;28;20421;-75
2023/01/05 10:06:56;;;;;;;15.20;6.30;;;;;;;;;;5094778;28;20427;-74
2023/01/05 10:09:29;;;;;;;22.37;6.23;;;;;;;;;;5080550;28;20475;-76
2023/01/05 10:15:12;;;;;;;21.03;7.80;;;;;;;;;;5078893;28;20984;-76
2023/01/05 10:17:39;;;;;;;19.17;7.63;;;;;;;;;;5077971;28;20432;-75
2023/01/05 10:20:13;;;;;;;22.90;7.33;;;;;;;;;;5078970;28;20554;-75
2023/01/05 10:22:44;;;;;;;25.10;9.90;;;;;;;;;;5071892;28;20425;-75
2023/01/05 10:25:28;;;;;;;37.40;9.13;;;;;;;;;;5080243;28;20420;-77
2023/01/05 10:28:01;;;;;;;29.80;8.53;;;;;;;;;;5077145;28;20409;-74
2023/01/05 10:30:52;;;;;;;35.43;9.27;;;;;;;;;;5080218;28;20795;-75
2023/01/05 10:33:23;;;;;;;30.23;8.17;;;;;;;;;;5075298;28;20464;-75
2023/01/05 10:35:55;;;;;;;19.80;8.63;;;;;;;;;;5080912;28;20523;-76
2023/01/05 10:38:40;;;;;;;19.83;8.00;;;;;;;;;;5073842;28;20416;-75
2023/01/05 10:41:09;;;;;;;25.53;7.77;;;;;;;;;;5085063;28;20428;-76
2023/01/05 10:43:38;;;;;;;27.27;8.87;;;;;;;;;;5090340;28;20420;-75
2023/01/05 10:46:06;;;;;;;22.40;8.43;;;;;;;;;;5080173;28;20442;-76
2023/01/05 10:48:34;;;;;;;25.20;8.30;;;;;;;;;;5090321;28;21221;-76
2023/01/05 10:51:02;;;;;;;23.03;6.63;;;;;;;;;;5085901;28;20964;-78
2023/01/05 10:53:28;;;;;;;19.40;7.17;;;;;;;;;;5109398;27;20431;-77
2023/01/05 10:55:58;;;;;;;25.20;7.90;;;;;;;;;;5081009;28;20447;-78
2023/01/05 10:58:26;;;;;;;18.80;6.70;;;;;;;;;;5076012;28;21167;-77
2023/01/05 11:00:53;;;;;;;22.17;6.47;;;;;;;;;;5082512;28;20436;-76
2023/01/05 11:03:27;;;;;;;28.93;8.60;;;;;;;;;;5081306;28;20889;-76
2023/01/05 11:05:53;;;;;;;18.47;7.17;;;;;;;;;;5077122;28;20422;-77
2023/01/05 11:08:26;;;;;;;27.20;11.00;;;;;;;;;;5074978;28;21176;-76
2023/01/05 11:10:56;;;;;;;28.57;9.03;;;;;;;;;;5076531;28;20821;-77
2023/01/05 11:13:28;;;;;;;20.13;7.77;;;;;;;;;;5086448;28;20405;-75
2023/01/05 11:15:56;;;;;;;21.80;7.40;;;;;;;;;;5083262;28;20848;-76
2023/01/05 11:18:31;;;;;;;17.10;7.00;;;;;;;;;;5085416;28;20400;-76
2023/01/05 11:21:06;;;;;;;22.27;7.20;;;;;;;;;;5083230;28;20431;-75
2023/01/05 11:23:34;;;;;;;17.83;6.40;;;;;;;;;;5083450;28;20443;-77
2023/01/05 11:26:20;;;;;;;18.17;6.23;;;;;;;;;;5074261;28;20515;-77
2023/01/05 11:29:00;;;;;;;27.50;7.57;;;;;;;;;;5082950;28;20487;-78
2023/01/05 11:31:28;;;;;;;19.83;6.17;;;;;;;;;;5073415;28;20463;-75
2023/01/05 11:33:58;;;;;;;18.97;5.60;;;;;;;;;;5079318;28;20551;-77
2023/01/05 11:36:24;;;;;;;24.67;8.43;;;;;;;;;;5086931;28;20421;-76
2023/01/05 11:38:53;;;;;;;29.97;7.10;;;;;;;;;;5083229;28;20860;-75
2023/01/05 11:41:21;;;;;;;24.23;7.30;;;;;;;;;;5083738;28;20451;-76
2023/01/05 11:43:47;;;;;;;17.80;5.90;;;;;;;;;;5090109;28;20427;-76
2023/01/05 11:46:14;;;;;;;13.73;5.80;;;;;;;;;;5091225;28;20492;-75
2023/01/05 11:48:47;;;;;;;18.53;6.60;;;;;;;;;;5087544;28;20483;-75
2023/01/05 11:51:32;;;;;;;17.73;6.17;;;;;;;;;;5073142;28;20470;-76
2023/01/05 11:53:58;;;;;;;14.60;6.10;;;;;;;;;;5081966;28;20488;-76
2023/01/05 11:56:24;;;;;;;24.33;7.33;;;;;;;;;;5096414;27;20871;-76
2023/01/05 11:58:53;;;;;;;15.07;4.90;;;;;;;;;;5076300;28;20473;-76
2023/01/05 12:01:38;;;;;;;18.40;6.27;;;;;;;;;;5070789;28;20436;-76
2023/01/05 12:04:22;;;;;;;18.87;6.37;;;;;;;;;;5077799;28;20419;-74
2023/01/05 12:07:00;;;;;;;18.40;5.50;;;;;;;;;;5082625;28;20974;-75
2023/01/05 12:09:31;;;;;;;15.37;5.83;;;;;;;;;;5076584;28;20443;-75
2023/01/05 12:11:57;;;;;;;12.40;5.30;;;;;;;;;;5083116;28;21174;-74
2023/01/05 12:14:42;;;;;;;22.80;6.43;;;;;;;;;;5084978;28;20423;-75
2023/01/05 12:17:16;;;;;;;16.90;6.17;;;;;;;;;;5096395;28;20436;-75
2023/01/05 12:19:50;;;;;;;17.70;6.10;;;;;;;;;;5077498;28;20439;-75
2023/01/05 12:22:34;;;;;;;19.30;7.00;;;;;;;;;;5079592;28;20462;-75
2023/01/05 12:25:19;;;;;;;16.97;7.53;;;;;;;;;;5079969;28;20430;-77
2023/01/05 12:28:03;;;;;;;26.27;6.23;;;;;;;;;;5089964;28;20432;-75
2023/01/05 12:31:08;;;;;;;18.67;6.00;;;;;;;;;;5072647;28;20954;-77
2023/01/05 12:33:46;;;;;;;16.77;6.20;;;;;;;;;;5077527;28;20438;-76
2023/01/05 12:36:24;;;;;;;21.13;7.07;;;;;;;;;;5079440;28;20482;-77
2023/01/05 12:38:56;;;;;;;10.93;5.03;;;;;;;;;;5080246;28;20505;-77
2023/01/05 12:41:55;;;;;;;22.00;6.23;;;;;;;;;;5083738;28;20463;-77
2023/01/05 12:44:21;;;;;;;15.97;6.13;;;;;;;;;;5072175;28;20435;-77
2023/01/05 12:47:05;;;;;;;13.73;5.20;;;;;;;;;;5092913;28;20784;-79
2023/01/05 12:49:36;;;;;;;19.33;6.00;;;;;;;;;;5074886;28;20840;-77
2023/01/05 12:52:08;;;;;;;17.87;5.47;;;;;;;;;;5092163;28;20539;-80
2023/01/05 12:54:43;;;;;;;24.80;8.30;;;;;;;;;;5084407;28;20484;-77
2023/01/05 12:57:21;;;;;;;16.03;6.37;;;;;;;;;;5105495;28;20972;-77
2023/01/05 13:00:01;;;;;;;22.07;7.53;;;;;;;;;;5076144;28;20492;-78
2023/01/05 13:02:32;;;;;;;16.33;6.83;;;;;;;;;;5090099;28;20950;-78
2023/01/05 13:05:04;;;;;;;17.30;7.30;;;;;;;;;;5083853;28;20412;-79
2023/01/05 13:07:30;;;;;;;17.53;7.70;;;;;;;;;;5084940;28;20438;-79
2023/01/05 13:10:05;;;;;;;20.97;6.10;;;;;;;;;;5077375;28;20466;-80
2023/01/05 13:12:33;;;;;;;14.83;6.40;;;;;;;;;;5083170;28;20476;-79
2023/01/05 13:15:06;;;;;;;21.10;6.80;;;;;;;;;;5075776;28;20540;-78
2023/01/05 13:17:33;;;;;;;11.43;5.53;;;;;;;;;;5082881;28;20442;-79
2023/01/05 13:20:10;;;;;;;14.63;6.93;;;;;;;;;;5088557;28;20439;-78
2023/01/05 13:22:38;;;;;;;19.20;6.00;;;;;;;;;;5074594;28;20725;-77
2023/01/05 13:25:14;;;;;;;10.20;6.30;;;;;;;;;;5081640;28;20847;-78
2023/01/05 13:27:40;;;;;;;17.03;6.23;;;;;;;;;;5081578;28;20407;-77
2023/01/05 13:30:06;;;;;;;11.83;5.10;;;;;;;;;;5092037;28;20502;-77
2023/01/05 13:32:32;;;;;;;27.07;6.77;;;;;;;;;;5088575;28;20482;-77
2023/01/05 13:35:17;;;;;;;15.90;6.20;;;;;;;;;;5088260;28;20428;-78
2023/01/05 13:38:03;;;;;;;17.17;7.67;;;;;;;;;;5087478;28;20415;-77
2023/01/05 13:40:41;;;;;;;14.27;6.23;;;;;;;;;;5085962;28;20419;-76
2023/01/05 13:43:26;;;;;;;23.00;7.60;;;;;;;;;;5086726;28;20427;-77
2023/01/05 13:45:55;;;;;;;16.10;5.83;;;;;;;;;;5093243;28;20999;-76
2023/01/05 13:48:40;;;;;;;19.77;5.77;;;;;;;;;;5093833;28;20432;-78
2023/01/05 13:51:23;;;;;;;20.20;6.50;;;;;;;;;;5089790;28;20666;-76
2023/01/05 13:53:50;;;;;;;20.70;8.30;;;;;;;;;;5082458;28;21057;-74
2023/01/05 13:56:22;;;;;;;22.60;9.30;;;;;;;;;;5087541;28;20420;-76
2023/01/05 13:58:57;;;;;;;16.70;5.50;;;;;;;;;;5100934;28;20442;-77
2023/01/05 14:01:39;;;;;;;19.83;7.70;;;;;;;;;;5084866;28;20620;-75
2023/01/05 14:04:15;;;;;;;22.43;6.23;;;;;;;;;;5110485;27;21337;-75
2023/01/05 14:06:43;;;;;;;15.50;5.20;;;;;;;;;;5076647;28;20439;-74
2023/01/05 14:09:28;;;;;;;16.90;5.63;;;;;;;;;;5079043;28;20543;-74
2023/01/05 14:12:20;;;;;;;17.90;7.70;;;;;;;;;;5087898;28;20471;-74
2023/01/05 14:15:00;;;;;;;18.07;6.73;;;;;;;;;;5077490;28;20879;-76
2023/01/05 14:17:45;;;;;;;12.90;6.20;;;;;;;;;;5089106;28;20704;-76
2023/01/05 14:20:31;;;;;;;20.57;6.83;;;;;;;;;;5076101;28;20717;-76
2023/01/05 14:22:58;;;;;;;9.27;5.00;;;;;;;;;;5077046;28;20504;-75
2023/01/05 14:25:39;;;;;;;10.17;4.63;;;;;;;;;;5084325;28;20464;-75
2023/01/05 14:28:40;;;;;;;14.90;5.87;;;;;;;;;;5087518;28;20623;-75
2023/01/05 14:31:13;;;;;;;13.50;4.97;;;;;;;;;;5042506;28;20457;-75
2023/01/05 14:33:45;;;;;;;17.13;6.20;;;;;;;;;;5079797;28;20431;-75
2023/01/05 14:36:23;;;;;;;13.43;6.40;;;;;;;;;;5083151;28;20524;-75
2023/01/05 14:38:49;;;;;;;14.17;6.30;;;;;;;;;;5081572;28;20442;-74
2023/01/05 14:41:22;;;;;;;14.40;5.17;;;;;;;;;;5083634;28;20440;-75
2023/01/05 14:43:55;;;;;;;18.13;5.97;;;;;;;;;;5086236;28;20447;-75
2023/01/05 14:46:27;;;;;;;7.10;5.50;;;;;;;;;;5073597;28;20435;-74
2023/01/05 14:49:07;;;;;;;20.70;9.30;;;;;;;;;;5083933;28;20798;-74
2023/01/05 14:51:35;;;;;;;16.63;6.03;;;;;;;;;;5080040;28;20474;-75
2023/01/05 14:54:02;;;;;;;17.77;7.43;;;;;;;;;;5090465;28;20478;-75
2023/01/05 14:56:29;;;;;;;10.57;5.70;;;;;;;;;;5075786;28;20432;-74
2023/01/05 14:58:55;;;;;;;9.53;6.90;;;;;;;;;;5097216;28;20439;-75
2023/01/05 15:01:32;;;;;;;14.97;5.50;;;;;;;;;;5080955;28;20428;-75
2023/01/05 15:04:00;;;;;;;10.40;5.00;;;;;;;;;;5087937;28;20526;-76
2023/01/05 15:06:45;;;;;;;18.70;7.03;;;;;;;;;;5095549;28;20516;-75
2023/01/05 15:09:20;;;;;;;13.90;4.80;;;;;;;;;;5078668;28;20961;-75
2023/01/05 15:11:46;;;;;;;10.50;5.13;;;;;;;;;;5076262;28;20459;-75
2023/01/05 15:14:31;;;;;;;16.30;6.27;;;;;;;;;;5091356;28;20476;-75
2023/01/05 15:16:57;;;;;;;16.23;7.07;;;;;;;;;;5081204;28;20461;-76
2023/01/05 15:19:41;;;;;;;16.63;6.03;;;;;;;;;;5088660;28;20447;-75
2023/01/05 15:22:26;;;;;;;11.03;5.30;;;;;;;;;;5076014;28;20486;-75